sensor_id;sensor_type;location;lat;lon;timestamp;pressure;altitude;pressure_sealevel;temperature;humidity
39265;BME280;42646;51.910;7.724;2022-12-05T00:01:26;101112.72;;;2.58;100.00
39265;BME280;42646;51.910;7.724;2022-12-05T00:03:56;101113.56;;;2.58;100.00
39265;BME280;42646;51.910;7.724;2022-12-05T00:06:26;101111.03;;;2.57;100.00
39265;BME280;42646;51.910;7.724;2022-12-05T00:08:55;101121.53;;;2.57;100.00
39265;BME280;42646;51.910;7.724;2022-12-05T00:11:25;101113.66;;;2.57;100.00
39265;BME280;42646;51.910;7.724;2022-12-05T00:13:56;101111.03;;;2.57;100.00
39265;BME280;42646;51.910;7.724;2022-12-05T00:16:29;101113.47;;;2.60;100.00
39265;BME280;42646;51.910;7.724;2022-12-05T00:18:58;101111.69;;;2.60;100.00
39265;BME280;42646;51.910;7.724;2022-12-05T00:21:28;101108.22;;;2.60;100.00
39265;BME280;42646;51.910;7.724;2022-12-05T00:23:57;101103.97;;;2.57;100.00
39265;BME280;42646;51.910;7.724;2022-12-05T00:26:26;101111.78;;;2.59;100.00
39265;BME280;42646;51.910;7.724;2022-12-05T00:28:55;101115.19;;;2.61;100.00
39265;BME280;42646;51.910;7.724;2022-12-05T00:31:24;101118.50;;;2.64;100.00
39265;BME280;42646;51.910;7.724;2022-12-05T00:33:53;101113.34;;;2.63;100.00
39265;BME280;42646;51.910;7.724;2022-12-05T00:36:22;101113.41;;;2.61;100.00
39265;BME280;42646;51.910;7.724;2022-12-05T00:38:51;101101.97;;;2.62;100.00
39265;BME280;42646;51.910;7.724;2022-12-05T00:41:21;101105.53;;;2.61;100.00
39265;BME280;42646;51.910;7.724;2022-12-05T00:43:49;101112.63;;;2.59;100.00
39265;BME280;42646;51.910;7.724;2022-12-05T00:46:20;101103.97;;;2.57;100.00
39265;BME280;42646;51.910;7.724;2022-12-05T00:48:48;101111.66;;;2.62;100.00
39265;BME280;42646;51.910;7.724;2022-12-05T00:51:18;101102.91;;;2.61;100.00
39265;BME280;42646;51.910;7.724;2022-12-05T00:53:47;101100.28;;;2.61;100.00
39265;BME280;42646;51.910;7.724;2022-12-05T00:56:19;101104.53;;;2.64;100.00
39265;BME280;42646;51.910;7.724;2022-12-05T00:58:47;101107.16;;;2.64;100.00
39265;BME280;42646;51.910;7.724;2022-12-05T01:01:17;101106.38;;;2.62;100.00
39265;BME280;42646;51.910;7.724;2022-12-05T01:03:47;101096.81;;;2.61;100.00
39265;BME280;42646;51.910;7.724;2022-12-05T01:06:21;101102.91;;;2.61;100.00
39265;BME280;42646;51.910;7.724;2022-12-05T01:08:51;101104.53;;;2.64;100.00
39265;BME280;42646;51.910;7.724;2022-12-05T01:11:19;101102.06;;;2.61;100.00
39265;BME280;42646;51.910;7.724;2022-12-05T01:13:47;101095.03;;;2.61;100.00
39265;BME280;42646;51.910;7.724;2022-12-05T01:16:16;101105.28;;;2.66;100.00
39265;BME280;42646;51.910;7.724;2022-12-05T01:18:47;101098.25;;;2.66;100.00
39265;BME280;42646;51.910;7.724;2022-12-05T01:21:15;101107.25;;;2.62;100.00
39265;BME280;42646;51.910;7.724;2022-12-05T01:23:43;101102.84;;;2.63;100.00
39265;BME280;42646;51.910;7.724;2022-12-05T01:26:13;101099.34;;;2.62;100.00
39265;BME280;42646;51.910;7.724;2022-12-05T01:28:41;101098.34;;;2.65;100.00
39265;BME280;42646;51.910;7.724;2022-12-05T01:31:16;101107.16;;;2.64;100.00
39265;BME280;42646;51.910;7.724;2022-12-05T01:33:46;101104.63;;;2.62;100.00
39265;BME280;42646;51.910;7.724;2022-12-05T01:36:16;101114.09;;;2.65;100.00
39265;BME280;42646;51.910;7.724;2022-12-05T01:38:44;101112.28;;;2.67;100.00
39265;BME280;42646;51.910;7.724;2022-12-05T01:41:16;101113.88;;;2.70;100.00
39265;BME280;42646;51.910;7.724;2022-12-05T01:43:55;101113.13;;;2.67;100.00
39265;BME280;42646;51.910;7.724;2022-12-05T01:46:24;101109.66;;;2.67;100.00
39265;BME280;42646;51.910;7.724;2022-12-05T01:48:57;101115.75;;;2.67;100.00
39265;BME280;42646;51.910;7.724;2022-12-05T01:51:26;101117.53;;;2.67;100.00
39265;BME280;42646;51.910;7.724;2022-12-05T01:53:54;101113.03;;;2.69;100.00
39265;BME280;42646;51.910;7.724;2022-12-05T01:56:22;101116.50;;;2.70;100.00
39265;BME280;42646;51.910;7.724;2022-12-05T01:58:50;101121.00;;;2.67;100.00
39265;BME280;42646;51.910;7.724;2022-12-05T02:01:19;101122.78;;;2.67;100.00
39265;BME280;42646;51.910;7.724;2022-12-05T02:03:49;101114.81;;;2.68;100.00
39265;BME280;42646;51.910;7.724;2022-12-05T02:06:19;101115.75;;;2.67;100.00
39265;BME280;42646;51.910;7.724;2022-12-05T02:09:12;101111.34;;;2.68;100.00
39265;BME280;42646;51.910;7.724;2022-12-05T02:11:50;101118.28;;;2.69;100.00
39265;BME280;42646;51.910;7.724;2022-12-05T02:14:23;101127.84;;;2.70;100.00
39265;BME280;42646;51.910;7.724;2022-12-05T02:17:01;101119.22;;;2.68;100.00
39265;BME280;42646;51.910;7.724;2022-12-05T02:19:49;101126.94;;;2.71;100.00
39265;BME280;42646;51.910;7.724;2022-12-05T02:22:48;101126.94;;;2.71;100.00
39265;BME280;42646;51.910;7.724;2022-12-05T02:28:55;101123.31;;;2.74;100.00
39265;BME280;42646;51.910;7.724;2022-12-05T02:31:33;101124.22;;;2.73;100.00
39265;BME280;42646;51.910;7.724;2022-12-05T02:34:11;101125.94;;;2.74;100.00
39265;BME280;42646;51.910;7.724;2022-12-05T02:36:46;101130.25;;;2.75;100.00
39265;BME280;42646;51.910;7.724;2022-12-05T02:39:21;101128.47;;;2.75;100.00
39265;BME280;42646;51.910;7.724;2022-12-05T02:41:54;101129.34;;;2.76;100.00
39265;BME280;42646;51.910;7.724;2022-12-05T02:44:31;101124.06;;;2.76;100.00
39265;BME280;42646;51.910;7.724;2022-12-05T02:47:03;101132.59;;;2.81;100.00
39265;BME280;42646;51.910;7.724;2022-12-05T02:49:36;101128.41;;;2.77;100.00
39265;BME280;42646;51.910;7.724;2022-12-05T02:52:08;101131.03;;;2.77;100.00
39265;BME280;42646;51.910;7.724;2022-12-05T02:54:39;101126.56;;;2.79;100.00
39265;BME280;42646;51.910;7.724;2022-12-05T02:57:11;101124.84;;;2.78;100.00
39265;BME280;42646;51.910;7.724;2022-12-05T02:59:39;101128.41;;;2.77;100.00
39265;BME280;42646;51.910;7.724;2022-12-05T03:02:21;101124.94;;;2.76;100.00
39265;BME280;42646;51.910;7.724;2022-12-05T03:04:50;101132.81;;;2.76;100.00
39265;BME280;42646;51.910;7.724;2022-12-05T03:07:20;101123.06;;;2.78;100.00
39265;BME280;42646;51.910;7.724;2022-12-05T03:10:21;101126.63;;;2.77;100.00
39265;BME280;42646;51.910;7.724;2022-12-05T03:12:55;101122.91;;;2.81;100.00
39265;BME280;42646;51.910;7.724;2022-12-05T03:15:53;101127.41;;;2.79;100.00
39265;BME280;42646;51.910;7.724;2022-12-05T03:18:28;101124.84;;;2.78;100.00
39265;BME280;42646;51.910;7.724;2022-12-05T03:21:00;101124.84;;;2.78;100.00
39265;BME280;42646;51.910;7.724;2022-12-05T03:23:31;101124.78;;;2.79;100.00
39265;BME280;42646;51.910;7.724;2022-12-05T03:26:05;101112.41;;;2.81;100.00
39265;BME280;42646;51.910;7.724;2022-12-05T03:28:46;101117.66;;;2.81;100.00
39265;BME280;42646;51.910;7.724;2022-12-05T03:31:22;101119.34;;;2.82;100.00
39265;BME280;42646;51.910;7.724;2022-12-05T03:33:57;101122.84;;;2.83;100.00
39265;BME280;42646;51.910;7.724;2022-12-05T03:36:35;101117.66;;;2.81;100.00
39265;BME280;42646;51.910;7.724;2022-12-05T03:39:12;101117.59;;;2.83;100.00
39265;BME280;42646;51.910;7.724;2022-12-05T03:41:53;101116.72;;;2.82;100.00
39265;BME280;42646;51.910;7.724;2022-12-05T03:44:29;101116.72;;;2.82;100.00
39265;BME280;42646;51.910;7.724;2022-12-05T03:47:03;101116.72;;;2.82;100.00
39265;BME280;42646;51.910;7.724;2022-12-05T03:49:36;101121.06;;;2.83;100.00
39265;BME280;42646;51.910;7.724;2022-12-05T03:52:10;101121.91;;;2.84;100.00
39265;BME280;42646;51.910;7.724;2022-12-05T03:54:42;101120.06;;;2.86;100.00
39265;BME280;42646;51.910;7.724;2022-12-05T03:57:14;101120.06;;;2.86;100.00
39265;BME280;42646;51.910;7.724;2022-12-05T03:59:49;101128.00;;;2.84;100.00
39265;BME280;42646;51.910;7.724;2022-12-05T04:02:23;101122.59;;;2.87;100.00
39265;BME280;42646;51.910;7.724;2022-12-05T04:04:55;101127.09;;;2.85;100.00
39265;BME280;42646;51.910;7.724;2022-12-05T04:07:26;101118.38;;;2.85;100.00
39265;BME280;42646;51.910;7.724;2022-12-05T04:09:58;101123.63;;;2.85;100.00
39265;BME280;42646;51.910;7.724;2022-12-05T04:12:30;101120.13;;;2.84;100.00
39265;BME280;42646;51.910;7.724;2022-12-05T04:15:02;101119.28;;;2.84;100.00
39265;BME280;42646;51.910;7.724;2022-12-05T04:17:38;101125.38;;;2.84;100.00
39265;BME280;42646;51.910;7.724;2022-12-05T04:20:11;101128.00;;;2.84;100.00
39265;BME280;42646;51.910;7.724;2022-12-05T04:22:58;101130.63;;;2.84;100.00
39265;BME280;42646;51.910;7.724;2022-12-05T04:25:31;101131.50;;;2.85;100.00
39265;BME280;42646;51.910;7.724;2022-12-05T04:28:14;101126.25;;;2.85;100.00
39265;BME280;42646;51.910;7.724;2022-12-05T04:30:50;101133.25;;;2.84;100.00
39265;BME280;42646;51.910;7.724;2022-12-05T04:33:24;101125.53;;;2.81;100.00
39265;BME280;42646;51.910;7.724;2022-12-05T04:36:03;101129.88;;;2.82;100.00
39265;BME280;42646;51.910;7.724;2022-12-05T04:38:39;101134.28;;;2.82;100.00
39265;BME280;42646;51.910;7.724;2022-12-05T04:41:12;101135.97;;;2.83;100.00
39265;BME280;42646;51.910;7.724;2022-12-05T04:43:44;101132.59;;;2.81;100.00
39265;BME280;42646;51.910;7.724;2022-12-05T04:46:15;101139.63;;;2.80;100.00
39265;BME280;42646;51.910;7.724;2022-12-05T04:48:50;101136.06;;;2.81;100.00
39265;BME280;42646;51.910;7.724;2022-12-05T04:51:23;101138.78;;;2.80;100.00
39265;BME280;42646;51.910;7.724;2022-12-05T04:53:57;101136.19;;;2.78;100.00
39265;BME280;42646;51.910;7.724;2022-12-05T04:56:26;101137.00;;;2.80;100.00
39265;BME280;42646;51.910;7.724;2022-12-05T04:58:56;101133.44;;;2.81;100.00
39265;BME280;42646;51.910;7.724;2022-12-05T05:01:27;101134.28;;;2.82;100.00
39265;BME280;42646;51.910;7.724;2022-12-05T05:03:58;101132.50;;;2.82;100.00
39265;BME280;42646;51.910;7.724;2022-12-05T05:06:37;101134.19;;;2.83;100.00
39265;BME280;42646;51.910;7.724;2022-12-05T05:09:04;101131.56;;;2.83;100.00
39265;BME280;42646;51.910;7.724;2022-12-05T05:11:33;101132.34;;;2.85;100.00
39265;BME280;42646;51.910;7.724;2022-12-05T05:14:02;101126.16;;;2.86;100.00
39265;BME280;42646;51.910;7.724;2022-12-05T05:16:33;101131.44;;;2.86;100.00
39265;BME280;42646;51.910;7.724;2022-12-05T05:19:01;101127.94;;;2.86;100.00
39265;BME280;42646;51.910;7.724;2022-12-05T05:21:33;101130.50;;;2.87;100.00
39265;BME280;42646;51.910;7.724;2022-12-05T05:24:03;101130.50;;;2.87;100.00
39265;BME280;42646;51.910;7.724;2022-12-05T05:26:38;101136.59;;;2.88;100.00
39265;BME280;42646;51.910;7.724;2022-12-05T05:29:07;101141.75;;;2.89;100.00
39265;BME280;42646;51.910;7.724;2022-12-05T05:31:37;101144.34;;;2.91;100.00
39265;BME280;42646;51.910;7.724;2022-12-05T05:34:05;101142.56;;;2.91;100.00
39265;BME280;42646;51.910;7.724;2022-12-05T05:36:35;101145.19;;;2.91;100.00
39265;BME280;42646;51.910;7.724;2022-12-05T05:39:05;101140.69;;;2.93;100.00
39265;BME280;42646;51.910;7.724;2022-12-05T05:41:35;101144.16;;;2.94;100.00
39265;BME280;42646;51.910;7.724;2022-12-05T05:44:03;101145.00;;;2.94;100.00
39265;BME280;42646;51.910;7.724;2022-12-05T05:46:33;101145.88;;;2.95;100.00
39265;BME280;42646;51.910;7.724;2022-12-05T05:49:04;101151.13;;;2.95;100.00
39265;BME280;42646;51.910;7.724;2022-12-05T05:51:32;101148.44;;;2.97;100.00
39265;BME280;42646;51.910;7.724;2022-12-05T05:54:00;101140.56;;;2.97;100.00
39265;BME280;42646;51.910;7.724;2022-12-05T05:56:29;101144.94;;;2.96;100.00
39265;BME280;42646;51.910;7.724;2022-12-05T05:58:59;101139.63;;;2.98;100.00
39265;BME280;42646;51.910;7.724;2022-12-05T06:01:30;101151.06;;;2.97;100.00
39265;BME280;42646;51.910;7.724;2022-12-05T06:03:58;101152.75;;;2.98;100.00
39265;BME280;42646;51.910;7.724;2022-12-05T06:06:29;101151.97;;;2.95;100.00
39265;BME280;42646;51.910;7.724;2022-12-05T06:08:57;101158.94;;;2.97;100.00
39265;BME280;42646;51.910;7.724;2022-12-05T06:11:26;101150.97;;;2.98;100.00
39265;BME280;42646;51.910;7.724;2022-12-05T06:13:58;101156.22;;;2.98;100.00
39265;BME280;42646;51.910;7.724;2022-12-05T06:16:28;101153.69;;;2.97;100.00
39265;BME280;42646;51.910;7.724;2022-12-05T06:18:57;101160.66;;;2.98;100.00
39265;BME280;42646;51.910;7.724;2022-12-05T06:21:25;101167.59;;;2.99;100.00
39265;BME280;42646;51.910;7.724;2022-12-05T06:23:53;101161.50;;;2.98;100.00
39265;BME280;42646;51.910;7.724;2022-12-05T06:26:22;101164.88;;;3.00;100.00
39265;BME280;42646;51.910;7.724;2022-12-05T06:28:49;101166.56;;;3.01;100.00
39265;BME280;42646;51.910;7.724;2022-12-05T06:31:23;101166.56;;;3.01;100.00
39265;BME280;42646;51.910;7.724;2022-12-05T06:33:54;101169.19;;;3.01;100.00
39265;BME280;42646;51.910;7.724;2022-12-05T06:36:22;101167.41;;;3.02;100.00
39265;BME280;42646;51.910;7.724;2022-12-05T06:38:50;101161.25;;;3.03;100.00
39265;BME280;42646;51.910;7.724;2022-12-05T06:41:19;101167.41;;;3.02;100.00
39265;BME280;42646;51.910;7.724;2022-12-05T06:43:47;101170.00;;;3.03;100.00
39265;BME280;42646;51.910;7.724;2022-12-05T06:46:15;101167.38;;;3.03;100.00
39265;BME280;42646;51.910;7.724;2022-12-05T06:49:10;101161.19;;;3.04;100.00
39265;BME280;42646;51.910;7.724;2022-12-05T06:51:38;101164.66;;;3.05;100.00
39265;BME280;42646;51.910;7.724;2022-12-05T06:54:05;101171.69;;;3.04;100.00
39265;BME280;42646;51.910;7.724;2022-12-05T06:56:58;101170.84;;;3.04;100.00
39265;BME280;42646;51.910;7.724;2022-12-05T06:59:28;101171.69;;;3.04;100.00
39265;BME280;42646;51.910;7.724;2022-12-05T07:01:57;101177.81;;;3.05;100.00
39265;BME280;42646;51.910;7.724;2022-12-05T07:04:25;101174.31;;;3.04;100.00
39265;BME280;42646;51.910;7.724;2022-12-05T07:06:54;101174.31;;;3.04;100.00
39265;BME280;42646;51.910;7.724;2022-12-05T07:09:24;101181.34;;;3.04;100.00
39265;BME280;42646;51.910;7.724;2022-12-05T07:12:14;101180.50;;;3.03;100.00
39265;BME280;42646;51.910;7.724;2022-12-05T07:14:43;101178.72;;;3.04;100.00
39265;BME280;42646;51.910;7.724;2022-12-05T07:17:40;101182.22;;;3.04;100.00
39265;BME280;42646;51.910;7.724;2022-12-05T07:20:12;101182.22;;;3.04;100.00
39265;BME280;42646;51.910;7.724;2022-12-05T07:22:43;101187.47;;;3.04;100.00
39265;BME280;42646;51.910;7.724;2022-12-05T07:25:11;101179.66;;;3.03;100.00
39265;BME280;42646;51.910;7.724;2022-12-05T07:28:03;101185.78;;;3.03;100.00
39265;BME280;42646;51.910;7.724;2022-12-05T07:30:34;101190.19;;;3.03;100.00
39265;BME280;42646;51.910;7.724;2022-12-05T07:33:03;101194.56;;;3.02;100.00
39265;BME280;42646;51.910;7.724;2022-12-05T07:35:32;101189.28;;;3.02;100.00
39265;BME280;42646;51.910;7.724;2022-12-05T07:38:00;101198.97;;;3.02;100.00
39265;BME280;42646;51.910;7.724;2022-12-05T07:40:28;101199.97;;;2.99;100.00
39265;BME280;42646;51.910;7.724;2022-12-05T07:42:57;101192.00;;;3.01;100.00
39265;BME280;42646;51.910;7.724;2022-12-05T07:45:25;101199.97;;;2.99;100.00
39265;BME280;42646;51.910;7.724;2022-12-05T07:47:55;101200.81;;;3.00;100.00
39265;BME280;42646;51.910;7.724;2022-12-05T07:50:24;101199.13;;;2.99;100.00
39265;BME280;42646;51.910;7.724;2022-12-05T07:52:54;101199.22;;;2.97;100.00
39265;BME280;42646;51.910;7.724;2022-12-05T07:55:22;101211.50;;;2.97;100.00
39265;BME280;42646;51.910;7.724;2022-12-05T07:57:50;101200.13;;;2.96;100.00
39265;BME280;42646;51.910;7.724;2022-12-05T08:00:18;101215.88;;;2.96;100.00
39265;BME280;42646;51.910;7.724;2022-12-05T08:03:11;101215.03;;;2.95;100.00
39265;BME280;42646;51.910;7.724;2022-12-05T08:05:42;101211.56;;;2.95;100.00
39265;BME280;42646;51.910;7.724;2022-12-05T08:08:11;101213.34;;;2.94;100.00
39265;BME280;42646;51.910;7.724;2022-12-05T08:10:39;101202.84;;;2.94;100.00
39265;BME280;42646;51.910;7.724;2022-12-05T08:13:07;101205.53;;;2.93;100.00
39265;BME280;42646;51.910;7.724;2022-12-05T08:15:34;101207.25;;;2.94;100.00
39265;BME280;42646;51.910;7.724;2022-12-05T08:18:02;101204.69;;;2.92;100.00
39265;BME280;42646;51.910;7.724;2022-12-05T08:20:59;101210.88;;;2.91;100.00
39265;BME280;42646;51.910;7.724;2022-12-05T08:23:29;101219.63;;;2.92;100.00
39265;BME280;42646;51.910;7.724;2022-12-05T08:26:00;101218.75;;;2.91;100.00
39265;BME280;42646;51.910;7.724;2022-12-05T08:28:29;101224.78;;;2.93;100.00
39265;BME280;42646;51.910;7.724;2022-12-05T08:31:02;101219.63;;;2.92;100.00
39265;BME280;42646;51.910;7.724;2022-12-05T08:33:30;101231.91;;;2.91;100.00
39265;BME280;42646;51.910;7.724;2022-12-05T08:36:00;101227.50;;;2.92;100.00
39265;BME280;42646;51.910;7.724;2022-12-05T08:38:30;101232.75;;;2.92;100.00
39265;BME280;42646;51.910;7.724;2022-12-05T08:40:59;101231.91;;;2.91;100.00
39265;BME280;42646;51.910;7.724;2022-12-05T08:43:27;101243.25;;;2.92;100.00
39265;BME280;42646;51.910;7.724;2022-12-05T08:45:59;101236.31;;;2.91;100.00
39265;BME280;42646;51.910;7.724;2022-12-05T08:48:28;101238.06;;;2.90;100.00
39265;BME280;42646;51.910;7.724;2022-12-05T08:50:57;101232.81;;;2.90;100.00
39265;BME280;42646;51.910;7.724;2022-12-05T08:53:25;101236.38;;;2.89;100.00
39265;BME280;42646;51.910;7.724;2022-12-05T08:55:55;101239.00;;;2.89;100.00
39265;BME280;42646;51.910;7.724;2022-12-05T08:58:27;101234.59;;;2.90;100.00
39265;BME280;42646;51.910;7.724;2022-12-05T09:01:07;101240.69;;;2.90;100.00
39265;BME280;42646;51.910;7.724;2022-12-05T09:03:35;101239.00;;;2.89;100.00
39265;BME280;42646;51.910;7.724;2022-12-05T09:06:04;101241.63;;;2.89;100.00
39265;BME280;42646;51.910;7.724;2022-12-05T09:08:32;101243.31;;;2.90;100.00
39265;BME280;42646;51.910;7.724;2022-12-05T09:11:05;101246.81;;;2.91;100.00
39265;BME280;42646;51.910;7.724;2022-12-05T09:13:34;101240.69;;;2.90;100.00
39265;BME280;42646;51.910;7.724;2022-12-05T09:16:06;101247.72;;;2.90;100.00
39265;BME280;42646;51.910;7.724;2022-12-05T09:18:35;101244.25;;;2.89;100.00
39265;BME280;42646;51.910;7.724;2022-12-05T09:21:06;101248.66;;;2.89;100.00
39265;BME280;42646;51.910;7.724;2022-12-05T09:23:36;101254.06;;;2.86;100.00
39265;BME280;42646;51.910;7.724;2022-12-05T09:26:09;101253.28;;;2.84;100.00
39265;BME280;42646;51.910;7.724;2022-12-05T09:28:38;101255.13;;;2.82;100.00
39265;BME280;42646;51.910;7.724;2022-12-05T09:31:07;101258.78;;;2.79;100.00
39265;BME280;42646;51.910;7.724;2022-12-05T09:33:36;101256.19;;;2.78;100.00
39265;BME280;42646;51.910;7.724;2022-12-05T09:36:05;101260.69;;;2.76;100.00
39265;BME280;42646;51.910;7.724;2022-12-05T09:38:34;101258.06;;;2.76;100.00
39265;BME280;42646;51.910;7.724;2022-12-05T09:41:12;101261.63;;;2.75;100.00
39265;BME280;42646;51.910;7.724;2022-12-05T09:43:48;101266.97;;;2.73;100.00
39265;BME280;42646;51.910;7.724;2022-12-05T09:46:25;101261.75;;;2.72;100.00
39265;BME280;42646;51.910;7.724;2022-12-05T09:49:02;101270.56;;;2.71;100.00
39265;BME280;42646;51.910;7.724;2022-12-05T09:51:43;101261.91;;;2.68;100.00
39265;BME280;42646;51.910;7.724;2022-12-05T09:54:20;101261.13;;;2.66;100.00
39265;BME280;42646;51.910;7.724;2022-12-05T09:56:51;101265.59;;;2.64;100.00
39265;BME280;42646;51.910;7.724;2022-12-05T09:59:20;101260.44;;;2.63;100.00
39265;BME280;42646;51.910;7.724;2022-12-05T10:01:54;101264.84;;;2.62;100.00
39265;BME280;42646;51.910;7.724;2022-12-05T10:04:50;101258.78;;;2.60;100.00
39265;BME280;42646;51.910;7.724;2022-12-05T10:07:30;101259.66;;;2.61;100.00
39265;BME280;42646;51.910;7.724;2022-12-05T10:10:15;101261.47;;;2.59;100.00
39265;BME280;42646;51.910;7.724;2022-12-05T10:13:01;101259.88;;;2.56;100.00
39265;BME280;42646;51.910;7.724;2022-12-05T10:15:38;101259.91;;;2.55;100.00
39265;BME280;42646;51.910;7.724;2022-12-05T10:18:23;101262.69;;;2.52;100.00
39265;BME280;42646;51.910;7.724;2022-12-05T10:20:57;101257.56;;;2.49;100.00
39265;BME280;42646;51.910;7.724;2022-12-05T10:23:30;101263.00;;;2.46;100.00
39265;BME280;42646;51.910;7.724;2022-12-05T10:26:26;101253.47;;;2.43;100.00
39265;BME280;42646;51.910;7.724;2022-12-05T10:29:01;101260.56;;;2.41;100.00
39265;BME280;42646;51.910;7.724;2022-12-05T10:31:37;101258.94;;;2.38;100.00
39265;BME280;42646;51.910;7.724;2022-12-05T10:34:36;101254.69;;;2.36;100.00
39265;BME280;42646;51.910;7.724;2022-12-05T10:37:09;101249.50;;;2.34;100.00
39265;BME280;42646;51.910;7.724;2022-12-05T10:39:37;101255.81;;;2.30;100.00
39265;BME280;42646;51.910;7.724;2022-12-05T10:42:06;101249.03;;;2.26;100.00
39265;BME280;42646;51.910;7.724;2022-12-05T10:44:42;101249.91;;;2.25;100.00
39265;BME280;42646;51.910;7.724;2022-12-05T10:47:11;101251.78;;;2.23;100.00
39265;BME280;42646;51.910;7.724;2022-12-05T10:49:39;101247.44;;;2.22;100.00
39265;BME280;42646;51.910;7.724;2022-12-05T10:52:08;101242.28;;;2.21;100.00
39265;BME280;42646;51.910;7.724;2022-12-05T10:54:42;101252.81;;;2.19;100.00
39265;BME280;42646;51.910;7.724;2022-12-05T10:57:21;101247.66;;;2.18;100.00
39265;BME280;42646;51.910;7.724;2022-12-05T10:59:50;101245.19;;;2.14;100.00
39265;BME280;42646;51.910;7.724;2022-12-05T11:02:22;101245.22;;;2.13;100.00
39265;BME280;42646;51.910;7.724;2022-12-05T11:04:51;101247.25;;;2.08;100.00
39265;BME280;42646;51.910;7.724;2022-12-05T11:07:26;101239.41;;;2.06;100.00
39265;BME280;42646;51.910;7.724;2022-12-05T11:09:58;101245.78;;;2.01;100.00
39265;BME280;42646;51.910;7.724;2022-12-05T11:12:26;101245.88;;;1.99;100.00
39265;BME280;42646;51.910;7.724;2022-12-05T11:14:59;101244.25;;;1.97;100.00
39265;BME280;42646;51.910;7.724;2022-12-05T11:17:31;101238.19;;;1.95;100.00
39265;BME280;42646;51.910;7.724;2022-12-05T11:20:00;101243.53;;;1.93;100.00
39265;BME280;42646;51.910;7.724;2022-12-05T11:22:30;101240.13;;;1.91;100.00
39265;BME280;42646;51.910;7.724;2022-12-05T11:24:59;101240.16;;;1.90;100.00
39265;BME280;42646;51.910;7.724;2022-12-05T11:27:29;101241.09;;;1.88;100.00
39265;BME280;42646;51.910;7.724;2022-12-05T11:30:01;101233.38;;;1.85;100.00
39265;BME280;42646;51.910;7.724;2022-12-05T11:32:29;101237.91;;;1.82;100.00
39265;BME280;42646;51.910;7.724;2022-12-05T11:35:06;101235.34;;;1.80;100.00
39265;BME280;42646;51.910;7.724;2022-12-05T11:37:39;101236.28;;;1.79;100.00
39265;BME280;42646;51.910;7.724;2022-12-05T11:40:35;101236.41;;;1.76;100.00
39265;BME280;42646;51.910;7.724;2022-12-05T11:43:21;101233.94;;;1.73;100.00
39265;BME280;42646;51.910;7.724;2022-12-05T11:46:08;101234.91;;;1.71;100.00
39265;BME280;42646;51.910;7.724;2022-12-05T11:48:58;101231.41;;;1.70;100.00
39265;BME280;42646;51.910;7.724;2022-12-05T11:51:35;101235.91;;;1.68;100.00
39265;BME280;42646;51.910;7.724;2022-12-05T11:54:32;101234.19;;;1.67;100.00
39265;BME280;42646;51.910;7.724;2022-12-05T11:57:35;101233.38;;;1.65;100.00
39265;BME280;42646;51.910;7.724;2022-12-05T12:00:21;101233.38;;;1.65;100.00
39265;BME280;42646;51.910;7.724;2022-12-05T12:03:10;101227.38;;;1.63;100.00
39265;BME280;42646;51.910;7.724;2022-12-05T12:05:55;101230.91;;;1.62;100.00
39265;BME280;42646;51.910;7.724;2022-12-05T12:08:28;101227.44;;;1.62;100.00
39265;BME280;42646;51.910;7.724;2022-12-05T12:11:03;101230.06;;;1.62;100.00
39265;BME280;42646;51.910;7.724;2022-12-05T12:13:49;101231.88;;;1.59;100.00
39265;BME280;42646;51.910;7.724;2022-12-05T12:16:34;101232.81;;;1.58;100.00
39265;BME280;42646;51.910;7.724;2022-12-05T12:19:20;101229.41;;;1.56;100.00
39265;BME280;42646;51.910;7.724;2022-12-05T12:22:05;101231.19;;;1.56;100.00
39265;BME280;42646;51.910;7.724;2022-12-05T12:24:56;101226.03;;;1.54;100.00
39265;BME280;42646;51.910;7.724;2022-12-05T12:27:36;101236.50;;;1.54;100.00
39265;BME280;42646;51.910;7.724;2022-12-05T12:30:13;101230.47;;;1.52;100.00
39265;BME280;42646;51.910;7.724;2022-12-05T12:32:53;101227.84;;;1.52;100.00
39265;BME280;42646;51.910;7.724;2022-12-05T12:35:30;101229.59;;;1.52;100.00
39265;BME280;42646;51.910;7.724;2022-12-05T12:38:19;101225.28;;;1.51;100.00
39265;BME280;42646;51.910;7.724;2022-12-05T12:40:53;101220.03;;;1.51;100.00
39265;BME280;42646;51.910;7.724;2022-12-05T12:43:38;101214.88;;;1.49;100.00
39265;BME280;42646;51.910;7.724;2022-12-05T12:46:32;101226.28;;;1.48;100.00
39265;BME280;42646;51.910;7.724;2022-12-05T12:49:35;101217.63;;;1.46;100.00
39265;BME280;42646;51.910;7.724;2022-12-05T12:52:13;101220.22;;;1.46;100.00
39265;BME280;42646;51.910;7.724;2022-12-05T12:54:56;101215.91;;;1.45;100.00
39265;BME280;42646;51.910;7.724;2022-12-05T12:57:39;101216.84;;;1.44;100.00
39265;BME280;42646;51.910;7.724;2022-12-05T13:00:21;101222.16;;;1.43;100.00
39265;BME280;42646;51.910;7.724;2022-12-05T13:02:53;101216.97;;;1.41;100.00
39265;BME280;42646;51.910;7.724;2022-12-05T13:05:30;101211.72;;;1.41;100.00
39265;BME280;42646;51.910;7.724;2022-12-05T13:08:05;101216.09;;;1.41;100.00
39265;BME280;42646;51.910;7.724;2022-12-05T13:10:40;101212.63;;;1.40;100.00
39265;BME280;42646;51.910;7.724;2022-12-05T13:13:14;101209.16;;;1.40;100.00
39265;BME280;42646;51.910;7.724;2022-12-05T13:15:44;101207.47;;;1.39;100.00
39265;BME280;42646;51.910;7.724;2022-12-05T13:18:16;101209.25;;;1.38;100.00
39265;BME280;42646;51.910;7.724;2022-12-05T13:20:45;101206.63;;;1.38;100.00
39265;BME280;42646;51.910;7.724;2022-12-05T13:23:18;101204.00;;;1.38;100.00
39265;BME280;42646;51.910;7.724;2022-12-05T13:25:47;101205.78;;;1.38;100.00
39265;BME280;42646;51.910;7.724;2022-12-05T13:28:24;101208.38;;;1.38;100.00